Forside
METAR-TAF:

METAR-TAF

Lufthavne :

Wallis, Frankrig

Breddekreds: 13-14S, længdekreds: 176-10W, højde: 23 m

METAR: fraværende

Tid: 15:42 (03:42 UTC)

Vejrudsigter

Denne rapport blev lavet for 4 timer og 42 minutter siden, kl. 23:00 UTC
Foreløbig gælder fra 16 på 00 UTC til 16 på 24 UTC
Vind 12 kt fra vest
Sigt 10 km eller mere
Spredte skyer i en højde af 1500 ft
Brudte skyer i en højde af 5000 ft
Midlertidig
fra 16 på 00 UTC til 16 på 24 UTC
Sigt: 4000 m
Brudte skyer i en højde af 1400 ft
Nogle få skyer i en højde af 2000 ft, Optårnet Cumulus.
regnbyger
Sandsynlighed 30% :
Midlertidig
fra 16 på 12 UTC til 16 på 24 UTC
Sigt: 2000 m
Brudte skyer i en højde af 1400 ft
Nogle få skyer i en højde af 1500 ft, Cumulonimbus.
regnbyger

TAF: NLWW 152300Z 1600/1624 27012KT 9999 SCT015 BKN050 TEMPO 1600/1624 4000 SHRA BKN014 FEW020TCU PROB30 TEMPO 1612/1624 2000 SHRA BKN014 FEW015CB

Vejrobservationer og prognoser fra mere end 4000 lufthavne (METAR og TAF).

De gule og røde prikker repræsenterer de meteorologiske stationer.

Flyt musen over at se navnet på stationen.

Så klik over at se vejr observationer og prognoser.

At skifte det kort: Klik på de grønne knapper med et sort kors for at zoome ind; på den grønne knap med en bindestreg for at zoome ud; eller på de grønne pile for tilstødende kort.


METAR-TAF: